AirNav   Air Wisconsin pilot careers
 
 1505 users online  

40XS Hank Sasser Airport at Breakaway
Cedar Park, Texas, USA

GOING TO CEDAR PARK?


FAA INFORMATION EFFECTIVE 24 MAY 2018

Location

FAA Identifier: 40XS
Lat/Long: 30-31-03.4850N / 097-46-50.9450W
30-31.058083N / 097-46.849083W
30.5176347 / -97.7808181
(estimated)
Elevation: 897 ft. / 273.4 m (surveyed)
Variation: 07E (1985)
From city: 3 miles NE of CEDAR PARK, TX
Time zone: UTC -5 (UTC -6 during Standard Time)
Zip code: 78613

Airport Operations

Airport use: Private use. Permission required prior to landing
Control tower: no
ARTCC: HOUSTON CENTER
FSS: SAN ANGELO FLIGHT SERVICE STATION
Attendance: UNATNDD
Wind indicator: yes
Segmented circle: no
Lights: ACTVT MIRL RY 15/33 - 122.9.

Airport Communications

WX ASOS at RYW (10 nm W): 119.375 (512-267-1365)
WX AWOS-3PT at GTU (11 nm NE): PHONE 512-869-3430
WX AWOS-3 at EDC (13 nm SE): 118.825 (512-616-2967)
  • MULTICOM FREQ 122.9.

Nearby radio navigation aids

VOR radial/distance  VOR name  Freq  Var
CWKr297/15.4CENTEX VORTAC112.8006E
GRKr173/31.0GRAY VOR/DME111.8004E

 
NDB name  Hdg/Dist  Freq  Var  ID
HOOD179/36.934707EHLR .... .-.. .-.

Airport Services

Runway Information

Runway 15/33

Dimensions: 3000 x 30 ft. / 914 x 9 m
Surface: asphalt
Runway edge lights: non-standard
RUNWAY 15  RUNWAY 33
Latitude: 30-31.290833N30-30.825333N
Longitude: 097-46.946000W097-46.752167W
Elevation: 897.0 ft.897.0 ft.
Traffic pattern: leftright
Obstructions: 30 ft. trees, marked, 300 ft. from runway15 ft. trees, marked, 300 ft. from runway

Airport Ownership and Management from official FAA records

Ownership: Privately-owned
Owner: D & D AIRPORT HOLDINGS LLC
2814 KENAI DRIVE
CEDAR PARK, TX 78613
Phone 512-413-1214
Manager: DON RICHIE
2814 KENAI DRIVE
CEDAR PARK, TX 78613
Phone 512-413-1214
OR 512-260-9419.

Airport Operational Statistics

Aircraft based on the field: 18
Single engine airplanes: 18
    

Instrument Procedures

There are no published instrument procedures at 40XS.

Some nearby airports with instrument procedures:

KRYW - Lago Vista TX - Rusty Allen Airport (10 nm W)
KGTU - Georgetown Municipal Airport (11 nm NE)
KEDC - Austin Executive Airport (13 nm SE)
3R9 - Lakeway Airpark (15 nm SW)
T74 - Taylor Municipal Airport (18 nm E)
 
Loc | Ops | Rwys | IFR | FBO | Links
Com | Nav | Svcs | Stats | Notes

AirNav Hotels Sweepstakes
 
Area around 40XS (Hank Sasser Airport at Breakaway)
 
Road maps at: MapQuest Bing Google
 
Aerial photo
WARNING: Photo may not be current or correct
Aerial photo of 40XS (Hank Sasser Airport at Breakaway)
Do you have a better or more recent aerial photo of Hank Sasser Airport at Breakaway that you would like to share? If so, please send us your photo.

 
Sectional chart

 
Airport distance calculator
Flying to Hank Sasser Airport at Breakaway? Find the distance to fly.

From to 40XS

Sunrise and sunset
Times for 20-Jun-2018
 Local
(UTC-5)
 Zulu
(UTC)
Morning civil twilight06:0211:02
Sunrise06:3011:30
Sunset20:3501:35
Evening civil twilight21:0302:03

Current date and time
Zulu (UTC)  20-Jun-2018 20:43:20
Local (UTC-5)  20-Jun-2018 15:43:20
 
METAR
KRYW 
10nm W 
202015Z AUTO 12006KT 10SM SCT031 30/22 A2986 RMK AO2 T03010215
KGTU 
11nm NE 
202008Z VRB04KT 10SM FEW029 29/22 A2987 RMK AO2
KEDC 
13nm SE 
202015Z AUTO 11004KT 10SM FEW017 27/23 A2986 RMK AO2
KATT 
14nm S 
201951Z AUTO 10SM FEW019 28/22 A2986 RMK AO2 SLP098 T02830222
KAUS 
15nm S 
201953Z 09007KT 10SM SCT015 BKN017 OVC070 27/23 A2984 RMK AO2 SLP095 T02670233 $
TAF
KAUS 
15nm S 
201735Z 2018/2124 10010KT P6SM VCSH BKN012 FM210300 11003KT 6SM BR OVC010 FM210700 12004KT 3SM BR OVC007 FM211000 VRB02KT 1SM BR OVC004 FM211500 15005KT P6SM BKN015 FM211800 15008KT P6SM SCT050 BKN250
NOTAMs
Click for the latest NOTAMs
NOTAMs are issued by the DoD/FAA and will open in a separate window not controlled by AirNav.

 

 
 

Would you like to see your business listed on this page?

 If your business provides an interesting product or service to pilots, flight crews, aircraft, or users of the Hank Sasser Airport at Breakaway, you should consider listing it here.  To start the listing process, click on the button below
 
Add a business
 

Other Pages about Hank Sasser Airport at Breakaway

Update a link
 
Copyright © AirNav, LLC. All rights reserved. Privacy Policy  Contact